AirNav   Everest Fuels
 
 1406 users online  

FD72 Kings Port Airport
Lake Placid, Florida, USA

GOING TO LAKE PLACID?


FAA INFORMATION EFFECTIVE 25 FEBRUARY 2021

Location

FAA Identifier: FD72
Lat/Long: 27-10-58.1760N 081-23-26.2640W
27-10.969600N 081-23.437733W
27.1828267,-81.3906289
(estimated)
Elevation: 148 ft. / 45 m (estimated)
Variation: 02W (1985)
From city: 7 miles S of LAKE PLACID, FL
Time zone: UTC -5 (UTC -4 during Daylight Saving Time)
Zip code: 33852

Airport Operations

Airport use: Private use. Permission required prior to landing
Activation date: 07/1986
Control tower: no
ARTCC: MIAMI CENTER
FSS: SAINT PETERSBURG FLIGHT SERVICE STATION
Attendance: CONTINUOUS
Wind indicator: yes
Segmented circle: no

Airport Communications

WX AWOS-3 at SEF (17 nm N): 119.475 (863-655-6424)

Nearby radio navigation aids

VOR radial/distance  VOR name  Freq  Var
LBVr359/21.3LA BELLE VORTAC110.4001E
PGDr070/(35.8)PUNTA GORDA VOR110.2006W

Airport Services

Runway Information

Runway 18/36

Dimensions: 2500 x 75 ft. / 762 x 23 m
Surface: turf, in good condition
RUNWAY 18  RUNWAY 36
Traffic pattern: leftleft
Obstructions: 4 ft. fence, 20 ft. from runway4 ft. fence, 20 ft. from runway

Airport Ownership and Management from official FAA records

Ownership: Privately-owned
Owner: RICHARD AND DALE DUTTON, ET AL
228 PARK LAND DRIVE
LAKE PLACID, FL 33852
Manager: EDWARD AND MARY ANN FLEAGLE
212 PARK LAND DRIVE
LAKE PLACID, FL 33852
Phone 910-358-7235

Airport Operational Statistics

Aircraft based on the field: 6
Single engine airplanes: 6
    

Additional Remarks

FOR CD CTC MIAMI ARTCC AT 305-716-1731.

Instrument Procedures

There are no published instrument procedures at FD72.

Some nearby airports with instrument procedures:

KSEF - Sebring Regional Airport (17 nm N)
X06 - Arcadia Municipal Airport (24 nm W)
KAVO - Avon ParkExecutive Airport (26 nm N)
X14 - La Belle Municipal Airport (27 nm S)
KOBE - Okeechobee County Airport (29 nm E)
 
Loc | Ops | Rwys | IFR | FBO | Links
Com | Nav | Svcs | Stats | Notes

Reliance Aviation
AirBoss

 
Area around FD72 (Kings Port Airport)
 
Road maps at: MapQuest Bing Google
 
Aerial photo
No photo
 
Sectional chart

 
Airport distance calculator
Flying to Kings Port Airport? Find the distance to fly.

From to FD72

Sunrise and sunset
Times for 05-Mar-2021
 Local
(UTC-5)
 Zulu
(UTC)
Morning civil twilight06:2311:23
Sunrise06:4711:47
Sunset18:2823:28
Evening civil twilight18:5123:51

Current date and time
Zulu (UTC)  05-Mar-2021 17:43:41
Local (UTC-5)  05-Mar-2021 12:43:41
 
METAR
KSEF 
17nm N 
051655Z AUTO 06006KT 10SM CLR 23/01 A3003 RMK AO2 T02350011
KAGR 
28nm N 
051658Z AUTO 04005KT 10SM CLR M A3001 RMK AO2 SLPNO $
KOBE 
29nm E 
051655Z AUTO 10003KT 10SM CLR 23/08 A3001 RMK AO2
K2IS 
32nm SE 
051655Z AUTO 07007KT 10SM CLR 24/10 A3003 RMK AO2 T02360095
TAF
KPGD 
36nm SW 
051128Z 0512/0612 01005KT P6SM SKC FM051400 06007KT P6SM FEW250 FM052000 32008KT P6SM SCT250 FM060100 36005KT P6SM BKN250 FM060500 05004KT P6SM BKN200 FM060900 07005KT P6SM SCT050 OVC150
KRSW 
44nm SW 
051128Z 0512/0612 01005KT P6SM SKC FM051400 06008KT P6SM FEW250 FM052100 30007KT P6SM SCT250 FM060100 36004KT P6SM BKN250 FM060500 04004KT P6SM BKN200 FM060900 07004KT P6SM SCT050 OVC150
KFMY 
44nm SW 
051128Z 0512/0612 01005KT P6SM SKC FM051400 06008KT P6SM FEW250 FM052000 29008KT P6SM SCT250 FM060100 36004KT P6SM BKN250 FM060500 04004KT P6SM BKN200 FM060900 07004KT P6SM SCT050 OVC150
NOTAMs
Click for the latest NOTAMs
NOTAMs are issued by the DoD/FAA and will open in a separate window not controlled by AirNav.

 

 
 

Would you like to see your business listed on this page?

 If your business provides an interesting product or service to pilots, flight crews, aircraft, or users of the Kings Port Airport, you should consider listing it here.  To start the listing process, click on the button below
 
Add a business
 

Other Pages about Kings Port Airport

Update a link
 
Copyright © AirNav, LLC. All rights reserved. Privacy Policy  Contact